sensor_id;sensor_type;location;lat;lon;timestamp;temperature;humidity
2453;DHT22;63678;47.994;7.854;2022-10-16T00:01:14;15.70;99.90
2453;DHT22;63678;47.994;7.854;2022-10-16T00:03:48;15.60;99.90
2453;DHT22;63678;47.994;7.854;2022-10-16T00:06:21;15.50;99.90
2453;DHT22;63678;47.994;7.854;2022-10-16T00:08:54;15.50;99.90
2453;DHT22;63678;47.994;7.854;2022-10-16T00:11:30;15.50;99.90
2453;DHT22;63678;47.994;7.854;2022-10-16T00:14:08;15.50;99.90
2453;DHT22;63678;47.994;7.854;2022-10-16T00:16:45;15.70;99.90
2453;DHT22;63678;47.994;7.854;2022-10-16T00:19:17;15.70;99.90
2453;DHT22;63678;47.994;7.854;2022-10-16T00:21:49;15.80;99.90
2453;DHT22;63678;47.994;7.854;2022-10-16T00:24:21;15.80;99.90
2453;DHT22;63678;47.994;7.854;2022-10-16T00:26:54;15.80;99.90
2453;DHT22;63678;47.994;7.854;2022-10-16T00:29:26;15.90;99.90
2453;DHT22;63678;47.994;7.854;2022-10-16T00:31:58;15.90;99.90
2453;DHT22;63678;47.994;7.854;2022-10-16T00:34:31;15.90;99.90
2453;DHT22;63678;47.994;7.854;2022-10-16T00:37:03;16.00;99.90
2453;DHT22;63678;47.994;7.854;2022-10-16T00:39:35;15.90;99.90
2453;DHT22;63678;47.994;7.854;2022-10-16T00:42:15;15.90;99.90
2453;DHT22;63678;47.994;7.854;2022-10-16T00:44:53;15.90;99.90
2453;DHT22;63678;47.994;7.854;2022-10-16T00:50:33;15.80;99.90
2453;DHT22;63678;47.994;7.854;2022-10-16T00:53:06;15.80;99.90
2453;DHT22;63678;47.994;7.854;2022-10-16T00:55:39;15.90;99.90
2453;DHT22;63678;47.994;7.854;2022-10-16T00:58:14;16.00;99.90
2453;DHT22;63678;47.994;7.854;2022-10-16T01:00:47;16.00;99.90
2453;DHT22;63678;47.994;7.854;2022-10-16T01:03:35;16.00;99.90
2453;DHT22;63678;47.994;7.854;2022-10-16T01:06:36;16.00;99.90
2453;DHT22;63678;47.994;7.854;2022-10-16T01:09:51;16.00;99.90
2453;DHT22;63678;47.994;7.854;2022-10-16T01:15:36;16.00;99.90
2453;DHT22;63678;47.994;7.854;2022-10-16T01:18:20;16.00;99.90
2453;DHT22;63678;47.994;7.854;2022-10-16T01:21:17;15.90;99.90
2453;DHT22;63678;47.994;7.854;2022-10-16T01:24:40;15.90;99.90
2453;DHT22;63678;47.994;7.854;2022-10-16T01:30:07;15.90;99.90
2453;DHT22;63678;47.994;7.854;2022-10-16T01:32:56;15.70;99.90
2453;DHT22;63678;47.994;7.854;2022-10-16T01:35:37;15.60;99.90
2453;DHT22;63678;47.994;7.854;2022-10-16T01:38:31;15.60;99.90
2453;DHT22;63678;47.994;7.854;2022-10-16T01:41:33;15.50;99.90
2453;DHT22;63678;47.994;7.854;2022-10-16T01:44:13;15.60;99.90
2453;DHT22;63678;47.994;7.854;2022-10-16T01:46:50;15.60;99.90
2453;DHT22;63678;47.994;7.854;2022-10-16T01:49:26;15.60;99.90
2453;DHT22;63678;47.994;7.854;2022-10-16T01:52:05;15.70;99.90
2453;DHT22;63678;47.994;7.854;2022-10-16T01:54:43;15.70;99.90
2453;DHT22;63678;47.994;7.854;2022-10-16T01:57:19;15.60;99.90
2453;DHT22;63678;47.994;7.854;2022-10-16T01:59:58;15.60;99.90
2453;DHT22;63678;47.994;7.854;2022-10-16T02:02:45;15.70;99.90
2453;DHT22;63678;47.994;7.854;2022-10-16T02:06:12;15.70;99.90
2453;DHT22;63678;47.994;7.854;2022-10-16T02:08:27;15.70;99.90
2453;DHT22;63678;47.994;7.854;2022-10-16T02:11:01;15.70;99.90
2453;DHT22;63678;47.994;7.854;2022-10-16T02:13:55;15.60;99.90
2453;DHT22;63678;47.994;7.854;2022-10-16T02:16:40;15.70;99.90
2453;DHT22;63678;47.994;7.854;2022-10-16T02:19:17;15.80;99.90
2453;DHT22;63678;47.994;7.854;2022-10-16T02:21:56;15.80;99.90
2453;DHT22;63678;47.994;7.854;2022-10-16T02:24:37;15.70;99.90
2453;DHT22;63678;47.994;7.854;2022-10-16T02:30:09;15.60;99.90
2453;DHT22;63678;47.994;7.854;2022-10-16T02:32:52;15.60;99.90
2453;DHT22;63678;47.994;7.854;2022-10-16T02:35:25;15.60;99.90
2453;DHT22;63678;47.994;7.854;2022-10-16T02:37:59;15.60;99.90
2453;DHT22;63678;47.994;7.854;2022-10-16T02:40:33;15.70;99.90
2453;DHT22;63678;47.994;7.854;2022-10-16T02:43:06;15.70;99.90
2453;DHT22;63678;47.994;7.854;2022-10-16T02:45:39;15.70;99.90
2453;DHT22;63678;47.994;7.854;2022-10-16T02:50:45;15.70;99.90
2453;DHT22;63678;47.994;7.854;2022-10-16T02:55:50;15.80;99.90
2453;DHT22;63678;47.994;7.854;2022-10-16T02:58:22;15.90;99.90
2453;DHT22;63678;47.994;7.854;2022-10-16T03:00:55;15.80;99.90
2453;DHT22;63678;47.994;7.854;2022-10-16T03:03:28;15.80;99.90
2453;DHT22;63678;47.994;7.854;2022-10-16T03:06:00;15.80;99.90
2453;DHT22;63678;47.994;7.854;2022-10-16T03:08:33;15.80;99.90
2453;DHT22;63678;47.994;7.854;2022-10-16T03:11:05;15.70;99.90
2453;DHT22;63678;47.994;7.854;2022-10-16T03:13:37;15.70;99.90
2453;DHT22;63678;47.994;7.854;2022-10-16T03:18:43;15.80;99.90
2453;DHT22;63678;47.994;7.854;2022-10-16T03:21:15;15.80;99.90
2453;DHT22;63678;47.994;7.854;2022-10-16T03:23:48;15.70;99.90
2453;DHT22;63678;47.994;7.854;2022-10-16T03:26:21;15.70;99.90
2453;DHT22;63678;47.994;7.854;2022-10-16T03:28:53;15.70;99.90
2453;DHT22;63678;47.994;7.854;2022-10-16T03:31:26;15.60;99.90
2453;DHT22;63678;47.994;7.854;2022-10-16T03:36:31;15.60;99.90
2453;DHT22;63678;47.994;7.854;2022-10-16T03:39:03;15.70;99.90
2453;DHT22;63678;47.994;7.854;2022-10-16T03:44:09;15.80;99.90
2453;DHT22;63678;47.994;7.854;2022-10-16T03:46:41;15.80;99.90
2453;DHT22;63678;47.994;7.854;2022-10-16T03:49:13;15.80;99.90
2453;DHT22;63678;47.994;7.854;2022-10-16T03:51:46;15.80;99.90
2453;DHT22;63678;47.994;7.854;2022-10-16T03:54:18;15.80;99.90
2453;DHT22;63678;47.994;7.854;2022-10-16T03:56:51;15.70;99.90
2453;DHT22;63678;47.994;7.854;2022-10-16T03:59:23;15.70;99.90
2453;DHT22;63678;47.994;7.854;2022-10-16T04:01:56;15.80;99.90
2453;DHT22;63678;47.994;7.854;2022-10-16T04:07:01;15.70;99.90
2453;DHT22;63678;47.994;7.854;2022-10-16T04:09:33;15.80;99.90
2453;DHT22;63678;47.994;7.854;2022-10-16T04:12:06;15.80;99.90
2453;DHT22;63678;47.994;7.854;2022-10-16T04:14:38;15.80;99.90
2453;DHT22;63678;47.994;7.854;2022-10-16T04:17:10;15.80;99.90
2453;DHT22;63678;47.994;7.854;2022-10-16T04:19:43;15.80;99.90
2453;DHT22;63678;47.994;7.854;2022-10-16T04:22:15;15.80;99.90
2453;DHT22;63678;47.994;7.854;2022-10-16T04:24:48;15.80;99.90
2453;DHT22;63678;47.994;7.854;2022-10-16T04:29:53;15.80;99.90
2453;DHT22;63678;47.994;7.854;2022-10-16T04:32:26;15.80;99.90
2453;DHT22;63678;47.994;7.854;2022-10-16T04:34:58;15.90;99.90
2453;DHT22;63678;47.994;7.854;2022-10-16T04:37:31;15.90;99.90
2453;DHT22;63678;47.994;7.854;2022-10-16T04:40:03;15.90;99.90
2453;DHT22;63678;47.994;7.854;2022-10-16T04:42:36;15.90;99.90
2453;DHT22;63678;47.994;7.854;2022-10-16T04:45:09;16.00;99.90
2453;DHT22;63678;47.994;7.854;2022-10-16T04:47:46;16.00;99.90
2453;DHT22;63678;47.994;7.854;2022-10-16T04:50:19;15.90;99.90
2453;DHT22;63678;47.994;7.854;2022-10-16T04:53:06;16.00;99.90
2453;DHT22;63678;47.994;7.854;2022-10-16T04:55:39;15.90;99.90
2453;DHT22;63678;47.994;7.854;2022-10-16T04:58:13;15.90;99.90
2453;DHT22;63678;47.994;7.854;2022-10-16T05:00:45;16.00;99.90
2453;DHT22;63678;47.994;7.854;2022-10-16T05:03:18;16.10;99.90
2453;DHT22;63678;47.994;7.854;2022-10-16T05:08:23;16.10;99.90
2453;DHT22;63678;47.994;7.854;2022-10-16T05:10:56;16.10;99.90
2453;DHT22;63678;47.994;7.854;2022-10-16T05:13:28;16.00;99.90
2453;DHT22;63678;47.994;7.854;2022-10-16T05:16:01;16.00;99.90
2453;DHT22;63678;47.994;7.854;2022-10-16T05:18:33;15.90;99.90
2453;DHT22;63678;47.994;7.854;2022-10-16T05:21:05;15.90;99.90
2453;DHT22;63678;47.994;7.854;2022-10-16T05:23:38;15.90;99.90
2453;DHT22;63678;47.994;7.854;2022-10-16T05:26:10;16.00;99.90
2453;DHT22;63678;47.994;7.854;2022-10-16T05:28:43;16.00;99.90
2453;DHT22;63678;47.994;7.854;2022-10-16T05:33:48;16.10;99.90
2453;DHT22;63678;47.994;7.854;2022-10-16T05:36:25;16.10;99.90
2453;DHT22;63678;47.994;7.854;2022-10-16T05:38:58;16.00;99.90
2453;DHT22;63678;47.994;7.854;2022-10-16T05:41:30;16.00;99.90
2453;DHT22;63678;47.994;7.854;2022-10-16T05:44:04;15.90;99.90
2453;DHT22;63678;47.994;7.854;2022-10-16T05:46:37;16.00;99.90
2453;DHT22;63678;47.994;7.854;2022-10-16T05:51:42;16.10;99.90
2453;DHT22;63678;47.994;7.854;2022-10-16T05:54:15;16.20;99.90
2453;DHT22;63678;47.994;7.854;2022-10-16T05:59:20;16.30;99.90
2453;DHT22;63678;47.994;7.854;2022-10-16T06:04:25;16.30;99.90
2453;DHT22;63678;47.994;7.854;2022-10-16T06:07:00;16.30;99.90
2453;DHT22;63678;47.994;7.854;2022-10-16T06:09:33;16.30;99.90
2453;DHT22;63678;47.994;7.854;2022-10-16T06:12:05;16.30;99.90
2453;DHT22;63678;47.994;7.854;2022-10-16T06:14:38;16.30;99.90
2453;DHT22;63678;47.994;7.854;2022-10-16T06:19:43;16.40;99.90
2453;DHT22;63678;47.994;7.854;2022-10-16T06:22:15;16.30;99.90
2453;DHT22;63678;47.994;7.854;2022-10-16T06:24:48;16.30;99.90
2453;DHT22;63678;47.994;7.854;2022-10-16T06:27:21;16.40;99.90
2453;DHT22;63678;47.994;7.854;2022-10-16T06:29:54;16.40;99.90
2453;DHT22;63678;47.994;7.854;2022-10-16T06:32:27;16.40;99.90
2453;DHT22;63678;47.994;7.854;2022-10-16T06:34:59;16.40;99.90
2453;DHT22;63678;47.994;7.854;2022-10-16T06:37:32;16.50;99.90
2453;DHT22;63678;47.994;7.854;2022-10-16T06:40:04;16.50;99.90
2453;DHT22;63678;47.994;7.854;2022-10-16T06:45:10;16.70;99.90
2453;DHT22;63678;47.994;7.854;2022-10-16T06:47:42;16.90;99.90
2453;DHT22;63678;47.994;7.854;2022-10-16T06:52:47;16.60;99.90
2453;DHT22;63678;47.994;7.854;2022-10-16T06:57:52;16.60;99.90
2453;DHT22;63678;47.994;7.854;2022-10-16T07:00:25;16.70;99.90
2453;DHT22;63678;47.994;7.854;2022-10-16T07:02:56;16.70;99.90
2453;DHT22;63678;47.994;7.854;2022-10-16T07:05:29;16.70;99.90
2453;DHT22;63678;47.994;7.854;2022-10-16T07:08:01;16.80;99.90
2453;DHT22;63678;47.994;7.854;2022-10-16T07:13:06;16.80;99.90
2453;DHT22;63678;47.994;7.854;2022-10-16T07:15:40;16.70;99.90
2453;DHT22;63678;47.994;7.854;2022-10-16T07:18:13;16.70;99.90
2453;DHT22;63678;47.994;7.854;2022-10-16T07:20:45;16.70;99.90
2453;DHT22;63678;47.994;7.854;2022-10-16T07:23:17;16.80;99.90
2453;DHT22;63678;47.994;7.854;2022-10-16T07:25:53;17.00;99.90
2453;DHT22;63678;47.994;7.854;2022-10-16T07:28:27;17.10;99.90
2453;DHT22;63678;47.994;7.854;2022-10-16T07:31:05;17.10;99.90
2453;DHT22;63678;47.994;7.854;2022-10-16T07:33:40;17.10;99.90
2453;DHT22;63678;47.994;7.854;2022-10-16T07:36:17;17.00;99.90
2453;DHT22;63678;47.994;7.854;2022-10-16T07:38:51;17.20;99.90
2453;DHT22;63678;47.994;7.854;2022-10-16T07:44:03;17.20;99.90
2453;DHT22;63678;47.994;7.854;2022-10-16T07:46:35;17.30;99.90
2453;DHT22;63678;47.994;7.854;2022-10-16T07:49:08;17.50;99.90
2453;DHT22;63678;47.994;7.854;2022-10-16T07:54:13;17.40;99.90
2453;DHT22;63678;47.994;7.854;2022-10-16T07:56:46;17.40;99.90
2453;DHT22;63678;47.994;7.854;2022-10-16T08:01:51;17.60;99.90
2453;DHT22;63678;47.994;7.854;2022-10-16T08:04:23;17.70;99.90
2453;DHT22;63678;47.994;7.854;2022-10-16T08:06:56;17.90;99.90
2453;DHT22;63678;47.994;7.854;2022-10-16T08:09:28;17.90;99.90
2453;DHT22;63678;47.994;7.854;2022-10-16T08:12:01;18.10;99.90
2453;DHT22;63678;47.994;7.854;2022-10-16T08:14:34;18.20;99.90
2453;DHT22;63678;47.994;7.854;2022-10-16T08:17:06;18.40;99.90
2453;DHT22;63678;47.994;7.854;2022-10-16T08:22:12;18.30;99.90
2453;DHT22;63678;47.994;7.854;2022-10-16T08:24:45;18.20;99.90
2453;DHT22;63678;47.994;7.854;2022-10-16T08:29:50;18.40;99.90
2453;DHT22;63678;47.994;7.854;2022-10-16T08:32:23;18.30;99.90
2453;DHT22;63678;47.994;7.854;2022-10-16T08:34:58;18.40;99.90
2453;DHT22;63678;47.994;7.854;2022-10-16T08:37:31;18.40;99.90
2453;DHT22;63678;47.994;7.854;2022-10-16T08:40:06;18.50;99.90
2453;DHT22;63678;47.994;7.854;2022-10-16T08:42:59;18.80;99.90
2453;DHT22;63678;47.994;7.854;2022-10-16T08:49:12;18.80;99.90
2453;DHT22;63678;47.994;7.854;2022-10-16T08:51:45;18.90;99.90
2453;DHT22;63678;47.994;7.854;2022-10-16T08:54:32;18.60;99.90
2453;DHT22;63678;47.994;7.854;2022-10-16T08:57:21;18.70;99.90
2453;DHT22;63678;47.994;7.854;2022-10-16T09:00:00;18.70;99.90
2453;DHT22;63678;47.994;7.854;2022-10-16T09:05:54;18.70;99.90
2453;DHT22;63678;47.994;7.854;2022-10-16T09:15:01;19.60;99.90
2453;DHT22;63678;47.994;7.854;2022-10-16T09:23:29;20.00;99.90
2453;DHT22;63678;47.994;7.854;2022-10-16T09:26:02;19.90;99.90
2453;DHT22;63678;47.994;7.854;2022-10-16T09:31:17;21.60;99.90
2453;DHT22;63678;47.994;7.854;2022-10-16T09:33:55;22.40;99.90
2453;DHT22;63678;47.994;7.854;2022-10-16T09:36:42;23.40;99.90
2453;DHT22;63678;47.994;7.854;2022-10-16T09:39:15;23.10;99.90
2453;DHT22;63678;47.994;7.854;2022-10-16T09:41:48;22.90;99.90
2453;DHT22;63678;47.994;7.854;2022-10-16T09:44:29;23.70;99.90
2453;DHT22;63678;47.994;7.854;2022-10-16T09:47:14;25.00;99.90
2453;DHT22;63678;47.994;7.854;2022-10-16T09:49:55;25.30;99.90
2453;DHT22;63678;47.994;7.854;2022-10-16T09:52:32;26.10;99.90
2453;DHT22;63678;47.994;7.854;2022-10-16T09:55:23;26.20;99.90
2453;DHT22;63678;47.994;7.854;2022-10-16T09:57:57;26.60;99.90
2453;DHT22;63678;47.994;7.854;2022-10-16T10:00:29;26.50;99.90
2453;DHT22;63678;47.994;7.854;2022-10-16T10:03:10;27.90;99.90
2453;DHT22;63678;47.994;7.854;2022-10-16T10:05:48;26.50;99.90
2453;DHT22;63678;47.994;7.854;2022-10-16T10:08:21;25.50;99.90
2453;DHT22;63678;47.994;7.854;2022-10-16T10:10:53;25.00;99.90
2453;DHT22;63678;47.994;7.854;2022-10-16T10:13:26;25.00;99.90
2453;DHT22;63678;47.994;7.854;2022-10-16T10:18:32;26.20;99.90
2453;DHT22;63678;47.994;7.854;2022-10-16T10:23:37;24.80;99.90
2453;DHT22;63678;47.994;7.854;2022-10-16T10:26:22;24.80;99.90
2453;DHT22;63678;47.994;7.854;2022-10-16T10:38:18;25.20;99.90
2453;DHT22;63678;47.994;7.854;2022-10-16T10:41:26;25.40;99.90
2453;DHT22;63678;47.994;7.854;2022-10-16T10:47:31;25.40;99.70
2453;DHT22;63678;47.994;7.854;2022-10-16T10:50:48;25.70;99.90
2453;DHT22;63678;47.994;7.854;2022-10-16T10:59:24;25.80;97.70
2453;DHT22;63678;47.994;7.854;2022-10-16T11:02:48;25.50;98.20
2453;DHT22;63678;47.994;7.854;2022-10-16T11:05:43;25.60;99.30
2453;DHT22;63678;47.994;7.854;2022-10-16T11:08:29;25.80;98.40
2453;DHT22;63678;47.994;7.854;2022-10-16T11:11:15;25.80;97.70
2453;DHT22;63678;47.994;7.854;2022-10-16T11:14:43;25.80;98.10
2453;DHT22;63678;47.994;7.854;2022-10-16T11:17:47;25.80;98.20
2453;DHT22;63678;47.994;7.854;2022-10-16T11:20:37;25.40;96.50
2453;DHT22;63678;47.994;7.854;2022-10-16T11:23:26;25.40;96.60
2453;DHT22;63678;47.994;7.854;2022-10-16T11:26:04;25.50;97.10
2453;DHT22;63678;47.994;7.854;2022-10-16T11:29:05;25.90;96.90
2453;DHT22;63678;47.994;7.854;2022-10-16T11:31:55;26.00;97.30
2453;DHT22;63678;47.994;7.854;2022-10-16T11:34:36;25.90;97.00
2453;DHT22;63678;47.994;7.854;2022-10-16T11:37:15;26.00;97.20
2453;DHT22;63678;47.994;7.854;2022-10-16T11:39:54;26.10;96.30
2453;DHT22;63678;47.994;7.854;2022-10-16T11:42:57;25.90;96.70
2453;DHT22;63678;47.994;7.854;2022-10-16T11:45:40;26.20;96.60
2453;DHT22;63678;47.994;7.854;2022-10-16T11:48:23;26.50;96.60
2453;DHT22;63678;47.994;7.854;2022-10-16T11:51:43;26.80;96.70
2453;DHT22;63678;47.994;7.854;2022-10-16T11:54:30;27.00;95.80
2453;DHT22;63678;47.994;7.854;2022-10-16T11:57:17;26.90;95.70
2453;DHT22;63678;47.994;7.854;2022-10-16T12:00:09;26.80;95.50
2453;DHT22;63678;47.994;7.854;2022-10-16T12:03:04;26.50;95.50
2453;DHT22;63678;47.994;7.854;2022-10-16T12:06:22;26.50;95.80
2453;DHT22;63678;47.994;7.854;2022-10-16T12:08:59;26.70;95.00
2453;DHT22;63678;47.994;7.854;2022-10-16T12:11:38;26.70;95.10
2453;DHT22;63678;47.994;7.854;2022-10-16T12:16:59;26.30;96.10
2453;DHT22;63678;47.994;7.854;2022-10-16T12:19:33;25.70;96.90
2453;DHT22;63678;47.994;7.854;2022-10-16T12:22:17;25.60;96.90
2453;DHT22;63678;47.994;7.854;2022-10-16T12:24:51;25.80;96.60
2453;DHT22;63678;47.994;7.854;2022-10-16T12:27:31;26.10;97.30
2453;DHT22;63678;47.994;7.854;2022-10-16T12:30:05;26.30;97.00
2453;DHT22;63678;47.994;7.854;2022-10-16T12:33:05;26.30;96.90
2453;DHT22;63678;47.994;7.854;2022-10-16T12:35:49;27.30;97.40
2453;DHT22;63678;47.994;7.854;2022-10-16T12:38:27;25.80;97.10
2453;DHT22;63678;47.994;7.854;2022-10-16T12:41:08;26.20;96.40
2453;DHT22;63678;47.994;7.854;2022-10-16T12:43:43;26.50;96.50
2453;DHT22;63678;47.994;7.854;2022-10-16T12:48:50;26.50;96.40
2453;DHT22;63678;47.994;7.854;2022-10-16T12:51:40;26.20;96.20
2453;DHT22;63678;47.994;7.854;2022-10-16T12:57:27;26.20;97.00
2453;DHT22;63678;47.994;7.854;2022-10-16T13:00:26;26.00;96.30
2453;DHT22;63678;47.994;7.854;2022-10-16T13:06:17;26.30;95.10
2453;DHT22;63678;47.994;7.854;2022-10-16T13:09:36;26.30;95.40
2453;DHT22;63678;47.994;7.854;2022-10-16T13:19:03;26.40;95.10
2453;DHT22;63678;47.994;7.854;2022-10-16T13:25:25;25.90;95.50
2453;DHT22;63678;47.994;7.854;2022-10-16T13:28:08;26.00;95.40
2453;DHT22;63678;47.994;7.854;2022-10-16T13:30:53;25.70;96.50
2453;DHT22;63678;47.994;7.854;2022-10-16T13:33:40;25.50;97.10
2453;DHT22;63678;47.994;7.854;2022-10-16T13:36:22;25.50;96.70
2453;DHT22;63678;47.994;7.854;2022-10-16T13:39:22;25.40;96.30
2453;DHT22;63678;47.994;7.854;2022-10-16T13:42:09;25.30;96.30
2453;DHT22;63678;47.994;7.854;2022-10-16T13:44:49;25.20;96.70
2453;DHT22;63678;47.994;7.854;2022-10-16T13:47:25;24.90;96.40
2453;DHT22;63678;47.994;7.854;2022-10-16T13:50:18;24.70;96.90
2453;DHT22;63678;47.994;7.854;2022-10-16T13:58:06;25.30;96.60
2453;DHT22;63678;47.994;7.854;2022-10-16T14:00:52;25.20;97.70
2453;DHT22;63678;47.994;7.854;2022-10-16T14:03:26;25.00;97.60
2453;DHT22;63678;47.994;7.854;2022-10-16T14:06:02;25.00;97.50
2453;DHT22;63678;47.994;7.854;2022-10-16T14:11:09;25.00;98.50
2453;DHT22;63678;47.994;7.854;2022-10-16T14:13:45;24.90;98.80
2453;DHT22;63678;47.994;7.854;2022-10-16T14:16:23;24.80;98.00
2453;DHT22;63678;47.994;7.854;2022-10-16T14:18:59;24.70;97.60
2453;DHT22;63678;47.994;7.854;2022-10-16T14:21:34;24.70;98.60
2453;DHT22;63678;47.994;7.854;2022-10-16T14:24:22;24.80;97.90
2453;DHT22;63678;47.994;7.854;2022-10-16T14:26:58;24.70;98.40
2453;DHT22;63678;47.994;7.854;2022-10-16T14:29:30;24.80;98.00
2453;DHT22;63678;47.994;7.854;2022-10-16T14:32:05;24.90;97.80
2453;DHT22;63678;47.994;7.854;2022-10-16T14:34:38;24.90;99.10
2453;DHT22;63678;47.994;7.854;2022-10-16T14:37:27;24.90;97.50
2453;DHT22;63678;47.994;7.854;2022-10-16T14:40:02;24.80;98.40
2453;DHT22;63678;47.994;7.854;2022-10-16T14:42:34;24.80;99.00
2453;DHT22;63678;47.994;7.854;2022-10-16T14:45:09;24.70;98.60
2453;DHT22;63678;47.994;7.854;2022-10-16T14:47:52;24.60;99.90
2453;DHT22;63678;47.994;7.854;2022-10-16T14:50:26;24.60;99.90
2453;DHT22;63678;47.994;7.854;2022-10-16T14:52:59;24.50;99.90
2453;DHT22;63678;47.994;7.854;2022-10-16T14:55:31;24.50;99.90
2453;DHT22;63678;47.994;7.854;2022-10-16T14:58:04;24.50;99.90
2453;DHT22;63678;47.994;7.854;2022-10-16T15:03:09;24.50;99.90
2453;DHT22;63678;47.994;7.854;2022-10-16T15:08:14;24.40;99.90
2453;DHT22;63678;47.994;7.854;2022-10-16T15:10:46;24.50;99.90
2453;DHT22;63678;47.994;7.854;2022-10-16T15:15:53;24.40;99.90
2453;DHT22;63678;47.994;7.854;2022-10-16T15:18:25;24.40;99.90
2453;DHT22;63678;47.994;7.854;2022-10-16T15:20:57;24.30;99.90
2453;DHT22;63678;47.994;7.854;2022-10-16T15:26:02;24.30;99.90
2453;DHT22;63678;47.994;7.854;2022-10-16T15:31:07;24.20;99.90
2453;DHT22;63678;47.994;7.854;2022-10-16T15:33:40;24.20;99.90
2453;DHT22;63678;47.994;7.854;2022-10-16T15:36:12;24.20;99.90
2453;DHT22;63678;47.994;7.854;2022-10-16T15:41:17;23.90;99.90
2453;DHT22;63678;47.994;7.854;2022-10-16T15:46:23;23.60;99.90
2453;DHT22;63678;47.994;7.854;2022-10-16T15:48:58;23.50;99.90
2453;DHT22;63678;47.994;7.854;2022-10-16T15:59:10;23.10;99.90
2453;DHT22;63678;47.994;7.854;2022-10-16T16:07:08;22.80;99.90
2453;DHT22;63678;47.994;7.854;2022-10-16T16:14:47;23.90;99.90
2453;DHT22;63678;47.994;7.854;2022-10-16T16:19:53;21.90;99.90
2453;DHT22;63678;47.994;7.854;2022-10-16T16:30:07;21.30;99.90
2453;DHT22;63678;47.994;7.854;2022-10-16T16:37:46;20.80;99.90
2453;DHT22;63678;47.994;7.854;2022-10-16T16:40:19;20.60;99.90
2453;DHT22;63678;47.994;7.854;2022-10-16T16:42:51;20.40;99.90
2453;DHT22;63678;47.994;7.854;2022-10-16T16:47:57;20.20;99.90
2453;DHT22;63678;47.994;7.854;2022-10-16T16:53:03;20.10;99.90
2453;DHT22;63678;47.994;7.854;2022-10-16T17:00:47;19.80;99.90
2453;DHT22;63678;47.994;7.854;2022-10-16T17:03:29;19.70;99.90
2453;DHT22;63678;47.994;7.854;2022-10-16T17:06:07;19.60;99.90
2453;DHT22;63678;47.994;7.854;2022-10-16T17:08:40;19.60;99.90
2453;DHT22;63678;47.994;7.854;2022-10-16T17:11:19;19.50;99.90
2453;DHT22;63678;47.994;7.854;2022-10-16T17:13:54;19.50;99.90
2453;DHT22;63678;47.994;7.854;2022-10-16T17:16:34;19.40;99.90
2453;DHT22;63678;47.994;7.854;2022-10-16T17:19:10;19.30;99.90
2453;DHT22;63678;47.994;7.854;2022-10-16T17:29:25;19.00;99.90
2453;DHT22;63678;47.994;7.854;2022-10-16T17:31:57;18.80;99.90
2453;DHT22;63678;47.994;7.854;2022-10-16T17:34:30;18.70;99.90
2453;DHT22;63678;47.994;7.854;2022-10-16T17:39:35;18.60;99.90
2453;DHT22;63678;47.994;7.854;2022-10-16T17:42:07;18.60;99.90
2453;DHT22;63678;47.994;7.854;2022-10-16T17:44:39;18.60;99.90
2453;DHT22;63678;47.994;7.854;2022-10-16T17:49:44;18.50;99.90
2453;DHT22;63678;47.994;7.854;2022-10-16T17:52:17;18.40;99.90
2453;DHT22;63678;47.994;7.854;2022-10-16T17:54:50;18.30;99.90
2453;DHT22;63678;47.994;7.854;2022-10-16T17:59:55;18.30;99.90
2453;DHT22;63678;47.994;7.854;2022-10-16T18:02:28;18.30;99.90
2453;DHT22;63678;47.994;7.854;2022-10-16T18:07:37;18.30;99.90
2453;DHT22;63678;47.994;7.854;2022-10-16T18:10:09;18.40;99.90
2453;DHT22;63678;47.994;7.854;2022-10-16T18:15:17;18.30;99.90
2453;DHT22;63678;47.994;7.854;2022-10-16T18:17:49;18.20;99.90
2453;DHT22;63678;47.994;7.854;2022-10-16T18:22:54;18.10;99.90
2453;DHT22;63678;47.994;7.854;2022-10-16T18:25:27;18.10;99.90
2453;DHT22;63678;47.994;7.854;2022-10-16T18:27:59;18.00;99.90
2453;DHT22;63678;47.994;7.854;2022-10-16T18:33:04;18.00;99.90
2453;DHT22;63678;47.994;7.854;2022-10-16T18:35:37;18.00;99.90
2453;DHT22;63678;47.994;7.854;2022-10-16T18:40:42;17.90;99.90
2453;DHT22;63678;47.994;7.854;2022-10-16T18:43:14;17.90;99.90
2453;DHT22;63678;47.994;7.854;2022-10-16T18:46:01;17.90;99.90
2453;DHT22;63678;47.994;7.854;2022-10-16T18:48:38;18.10;99.90
2453;DHT22;63678;47.994;7.854;2022-10-16T18:51:31;18.00;99.90
2453;DHT22;63678;47.994;7.854;2022-10-16T18:54:08;17.90;99.90
2453;DHT22;63678;47.994;7.854;2022-10-16T18:56:42;17.90;99.90
2453;DHT22;63678;47.994;7.854;2022-10-16T19:01:48;17.80;99.90
2453;DHT22;63678;47.994;7.854;2022-10-16T19:04:21;17.70;99.90
2453;DHT22;63678;47.994;7.854;2022-10-16T19:09:27;17.80;99.90
2453;DHT22;63678;47.994;7.854;2022-10-16T19:11:59;17.70;99.90
2453;DHT22;63678;47.994;7.854;2022-10-16T19:17:07;17.80;99.90
2453;DHT22;63678;47.994;7.854;2022-10-16T19:19:39;17.90;99.90
2453;DHT22;63678;47.994;7.854;2022-10-16T19:22:12;18.00;99.90
2453;DHT22;63678;47.994;7.854;2022-10-16T19:24:59;17.90;99.90
2453;DHT22;63678;47.994;7.854;2022-10-16T19:27:31;17.80;99.90
2453;DHT22;63678;47.994;7.854;2022-10-16T19:37:42;17.80;99.90
2453;DHT22;63678;47.994;7.854;2022-10-16T19:42:47;17.80;99.90
2453;DHT22;63678;47.994;7.854;2022-10-16T19:45:20;17.80;99.90
2453;DHT22;63678;47.994;7.854;2022-10-16T19:47:52;17.60;99.90
2453;DHT22;63678;47.994;7.854;2022-10-16T19:50:24;17.60;99.90
2453;DHT22;63678;47.994;7.854;2022-10-16T19:52:57;17.50;99.90
2453;DHT22;63678;47.994;7.854;2022-10-16T19:55:30;17.30;99.90
2453;DHT22;63678;47.994;7.854;2022-10-16T20:00:35;17.20;99.90
2453;DHT22;63678;47.994;7.854;2022-10-16T20:05:53;17.00;99.90
2453;DHT22;63678;47.994;7.854;2022-10-16T20:08:26;16.90;99.90
2453;DHT22;63678;47.994;7.854;2022-10-16T20:10:59;16.90;99.90
2453;DHT22;63678;47.994;7.854;2022-10-16T20:16:12;17.00;99.90
2453;DHT22;63678;47.994;7.854;2022-10-16T20:18:46;17.00;99.90
2453;DHT22;63678;47.994;7.854;2022-10-16T20:21:23;17.00;99.90
2453;DHT22;63678;47.994;7.854;2022-10-16T20:23:59;17.00;99.90
2453;DHT22;63678;47.994;7.854;2022-10-16T20:26:32;16.90;99.90
2453;DHT22;63678;47.994;7.854;2022-10-16T20:29:05;16.90;99.90
2453;DHT22;63678;47.994;7.854;2022-10-16T20:31:39;17.00;99.90
2453;DHT22;63678;47.994;7.854;2022-10-16T20:34:12;17.00;99.90
2453;DHT22;63678;47.994;7.854;2022-10-16T20:39:18;17.00;99.90
2453;DHT22;63678;47.994;7.854;2022-10-16T20:41:51;17.00;99.90
2453;DHT22;63678;47.994;7.854;2022-10-16T20:44:23;17.00;99.90
2453;DHT22;63678;47.994;7.854;2022-10-16T20:46:55;17.00;99.90
2453;DHT22;63678;47.994;7.854;2022-10-16T20:49:28;17.00;99.90
2453;DHT22;63678;47.994;7.854;2022-10-16T20:54:44;16.90;99.90
2453;DHT22;63678;47.994;7.854;2022-10-16T20:57:17;16.90;99.90
2453;DHT22;63678;47.994;7.854;2022-10-16T20:59:49;16.80;99.90
2453;DHT22;63678;47.994;7.854;2022-10-16T21:02:26;16.70;99.90
2453;DHT22;63678;47.994;7.854;2022-10-16T21:04:58;16.70;99.90
2453;DHT22;63678;47.994;7.854;2022-10-16T21:07:30;16.70;99.90
2453;DHT22;63678;47.994;7.854;2022-10-16T21:10:03;16.70;99.90
2453;DHT22;63678;47.994;7.854;2022-10-16T21:12:36;16.70;99.90